Time;durP1;ratioP1;P1;durP2;ratioP2;P2;SDS_P1;SDS_P2;PMS_P1;PMS_P2;Temp;Humidity;BMP_temperature;BMP_pressure;BME280_temperature;BME280_humidity;BME280_pressure;Samples;Min_cycle;Max_cycle;Signal;HPM_P1;HPM_P2
2022/09/08 00:01:24;;;;;;;7.80;7.00;;;18.60;99.90;;;-141.84;75.67;20279.28;5092345;28;20239;-71
2022/09/08 00:03:54;;;;;;;7.50;6.65;;;18.50;99.90;;;-141.84;75.73;20250.81;5092689;28;20667;-71
2022/09/08 00:06:22;;;;;;;7.90;7.05;;;18.40;99.90;;;-141.84;76.20;20216.25;5093034;28;20212;-68
2022/09/08 00:08:55;;;;;;;7.50;6.50;;;18.40;99.90;;;-141.84;76.60;20226.44;5092479;28;20278;-69
2022/09/08 00:11:28;;;;;;;7.70;6.90;;;18.40;99.90;;;-141.84;76.77;20230.50;5092625;28;20247;-69
2022/09/08 00:13:59;;;;;;;8.10;7.30;;;18.30;99.90;;;-141.84;76.97;20214.22;5092331;28;20254;-69
2022/09/08 00:16:27;;;;;;;7.85;7.15;;;18.30;99.90;;;-141.84;77.06;20202.03;5092240;28;20603;-69
2022/09/08 00:18:57;;;;;;;8.93;7.72;;;18.30;99.90;;;-141.84;76.88;20171.56;5092599;28;20204;-68
2022/09/08 00:21:28;;;;;;;8.45;7.18;;;18.30;99.90;;;-141.84;77.05;20169.53;5093400;28;20204;-69
2022/09/08 00:23:56;;;;;;;8.70;7.28;;;18.20;99.90;;;-141.84;76.91;20187.81;5092292;28;20231;-69
2022/09/08 00:26:24;;;;;;;8.57;7.50;;;18.20;99.90;;;-141.84;77.20;20157.31;5092316;28;20227;-69
2022/09/08 00:28:52;;;;;;;8.15;7.38;;;18.20;99.90;;;-141.84;77.48;20116.66;5092119;28;20240;-69
2022/09/08 00:31:21;;;;;;;8.27;7.45;;;18.20;99.90;;;-141.84;77.61;20090.25;5091865;28;20722;-69
2022/09/08 00:33:49;;;;;;;8.15;7.35;;;18.20;99.90;;;-141.84;77.35;20100.41;5092547;28;20200;-70
2022/09/08 00:36:19;;;;;;;7.60;6.90;;;18.20;99.90;;;-141.84;77.11;20114.63;5092760;28;20292;-69
2022/09/08 00:38:53;;;;;;;7.72;6.95;;;18.20;99.90;;;-141.84;77.61;20088.22;5092078;28;20715;-69
2022/09/08 00:41:24;;;;;;;10.25;7.55;;;18.10;99.90;;;-141.84;77.21;20118.69;5092112;28;20632;-68
2022/09/08 00:43:58;;;;;;;7.75;7.05;;;18.10;99.90;;;-141.84;77.14;20086.19;5092014;28;20234;-68
2022/09/08 00:46:32;;;;;;;8.38;7.03;;;18.10;99.90;;;-141.84;76.88;20080.09;5091918;28;20230;-70
2022/09/08 00:49:09;;;;;;;8.00;7.20;;;18.10;99.90;;;-141.84;76.65;20092.28;5091917;28;20230;-68
2022/09/08 00:51:45;;;;;;;9.35;7.45;;;18.20;99.90;;;-141.84;75.90;20124.81;5092085;28;20180;-70
2022/09/08 00:54:16;;;;;;;8.25;7.25;;;18.20;99.90;;;-141.84;76.04;20118.69;5092445;28;20557;-69
2022/09/08 00:56:48;;;;;;;8.18;7.38;;;18.30;99.90;;;-141.84;75.80;20104.47;5091390;28;20486;-70
2022/09/08 00:59:26;;;;;;;9.07;8.10;;;18.30;99.90;;;-141.84;75.04;20151.22;5091661;28;20219;-68
2022/09/08 01:01:55;;;;;;;9.30;8.23;;;18.30;99.90;;;-141.84;74.57;20155.28;5091483;28;20438;-71
2022/09/08 01:04:24;;;;;;;8.68;7.78;;;18.40;99.90;;;-141.84;74.71;20159.34;5091814;28;20237;-69
2022/09/08 01:12:53;;;;;;;9.43;7.65;;;18.30;99.90;;;-141.84;76.81;20021.16;5091179;28;20184;-69
2022/09/08 01:15:25;;;;;;;8.30;7.53;;;18.20;99.90;;;-141.84;76.88;20041.47;5091759;28;20224;-68
2022/09/08 01:17:55;;;;;;;8.88;8.07;;;18.10;99.90;;;-141.84;77.22;19974.41;5091252;28;20219;-69
2022/09/08 01:20:33;;;;;;;9.07;7.80;;;18.10;99.90;;;-141.84;77.50;20000.81;5091409;28;20227;-69
2022/09/08 01:23:52;;;;;;;8.55;7.75;;;18.00;99.90;;;-141.84;77.21;20047.56;5091172;28;20239;-68
2022/09/08 01:26:50;;;;;;;9.52;8.63;;;18.00;99.90;;;-141.84;77.04;19994.72;5091399;28;20231;-68
2022/09/08 01:29:22;;;;;;;11.38;9.50;;;17.90;99.90;;;-141.84;77.50;19968.31;5071389;28;20234;-69
2022/09/08 01:31:54;;;;;;;9.88;8.85;;;17.90;99.90;;;-141.84;77.48;19972.38;5091362;28;20730;-70
2022/09/08 01:34:22;;;;;;;12.68;9.43;;;17.90;99.90;;;-141.84;77.57;19919.53;5091015;28;20741;-69
2022/09/08 01:36:50;;;;;;;12.07;8.93;;;17.90;99.90;;;-141.84;77.78;20031.31;5091342;28;20207;-69
2022/09/08 01:39:19;;;;;;;10.15;9.15;;;17.90;99.90;;;-141.84;78.37;19960.16;5091813;28;20211;-69
2022/09/08 01:41:47;;;;;;;10.93;9.60;;;17.90;99.90;;;-141.84;78.45;19937.81;5091266;28;20285;-68
2022/09/08 01:44:15;;;;;;;10.27;9.30;;;17.90;99.90;;;-141.84;78.66;19907.31;5090882;28;20223;-69
2022/09/08 01:46:44;;;;;;;10.60;9.50;;;17.90;99.90;;;-141.84;78.39;19927.66;5090813;28;20231;-70
2022/09/08 01:49:12;;;;;;;11.15;9.38;;;17.90;99.90;;;-141.84;78.64;19931.72;5091059;28;20605;-69
2022/09/08 01:51:40;;;;;;;10.50;9.35;;;17.90;99.90;;;-141.84;78.57;19929.69;5091035;28;20607;-69
2022/09/08 01:54:08;;;;;;;9.98;8.98;;;17.90;99.90;;;-141.84;78.64;19911.41;5091564;28;20204;-69
2022/09/08 01:56:36;;;;;;;9.65;8.70;;;17.90;99.90;;;-141.84;78.66;19897.16;5090611;28;20489;-69
2022/09/08 01:59:05;;;;;;;11.90;9.40;;;17.90;99.90;;;-141.84;79.12;19884.97;5090379;28;20717;-70
2022/09/08 02:01:33;;;;;;;9.98;9.05;;;17.80;99.90;;;-141.84;78.97;19889.03;5091284;28;20293;-71
2022/09/08 02:04:03;;;;;;;10.65;9.27;;;17.80;99.90;;;-141.84;79.24;19891.06;5090939;28;20216;-69
2022/09/08 02:06:31;;;;;;;11.00;9.75;;;17.80;99.90;;;-141.84;79.67;19862.63;5091647;28;20207;-68
2022/09/08 02:08:59;;;;;;;10.27;9.30;;;17.80;99.90;;;-141.84;80.09;19840.25;5090527;28;20285;-69
2022/09/08 02:11:28;;;;;;;11.20;9.85;;;17.80;99.90;;;-141.84;79.89;19838.22;5090815;28;20714;-69
2022/09/08 02:13:56;;;;;;;13.07;9.63;;;17.80;99.90;;;-141.84;79.09;19895.13;5090783;28;20232;-70
2022/09/08 02:16:24;;;;;;;10.90;9.77;;;17.80;99.90;;;-141.84;78.72;19915.47;5090958;28;20244;-69
2022/09/08 02:18:54;;;;;;;10.15;8.90;;;17.90;99.90;;;-141.84;78.85;19917.50;5090977;28;20577;-68
2022/09/08 02:21:25;;;;;;;10.75;9.70;;;18.00;99.90;;;-141.84;78.60;19913.44;5091549;28;20180;-69
2022/09/08 02:23:55;;;;;;;10.85;9.85;;;17.90;99.90;;;-141.84;78.30;19921.56;5090349;28;20234;-70
2022/09/08 02:26:28;;;;;;;10.27;9.38;;;18.00;99.90;;;-141.84;78.68;19870.75;5092707;28;20771;-69
2022/09/08 02:28:57;;;;;;;9.95;9.05;;;17.90;99.90;;;-141.84;79.15;19882.94;5094340;28;20244;-68
2022/09/08 02:31:27;;;;;;;10.70;9.57;;;17.90;99.90;;;-141.84;78.89;19842.28;5094588;28;20216;-69
2022/09/08 02:33:57;;;;;;;10.85;9.77;;;17.90;99.90;;;-141.84;79.34;19887.00;5094645;28;20184;-68
2022/09/08 02:36:26;;;;;;;9.60;8.65;;;17.90;99.90;;;-141.84;79.33;19830.09;5094855;28;20664;-68
2022/09/08 02:38:56;;;;;;;9.45;8.55;;;17.90;99.90;;;-141.84;79.05;19903.25;5094142;28;20216;-68
2022/09/08 02:41:27;;;;;;;9.68;8.68;;;17.90;99.90;;;-141.84;78.85;19921.56;5094510;28;20224;-68
2022/09/08 02:43:56;;;;;;;9.85;8.95;;;17.90;99.90;;;-141.84;78.31;19882.94;5093938;28;20220;-69
2022/09/08 02:46:25;;;;;;;9.38;8.48;;;18.00;99.90;;;-141.84;78.23;19862.63;5093916;28;20775;-70
2022/09/08 02:48:53;;;;;;;9.35;8.55;;;18.00;99.90;;;-141.84;78.45;19901.22;5093981;28;20255;-69
2022/09/08 02:51:21;;;;;;;9.25;8.35;;;18.00;99.90;;;-141.84;78.35;19919.53;5094651;28;20207;-67
2022/09/08 02:53:55;;;;;;;11.45;9.27;;;18.10;99.90;;;-141.84;77.71;19903.25;5093746;28;20249;-68
2022/09/08 02:56:23;;;;;;;8.68;7.78;;;18.10;99.90;;;-141.84;77.37;19911.41;5094234;28;20224;-69
2022/09/08 02:58:51;;;;;;;9.30;8.10;;;18.10;99.90;;;-141.84;77.27;19891.06;5093659;28;20235;-68
2022/09/08 03:01:19;;;;;;;9.40;8.07;;;18.10;99.90;;;-141.84;77.16;19947.97;5093936;28;20699;-69
2022/09/08 03:03:48;;;;;;;8.40;7.68;;;18.20;99.90;;;-141.84;77.25;19915.47;5093896;28;20249;-69
2022/09/08 03:06:19;;;;;;;9.30;8.10;;;18.20;99.90;;;-141.84;76.40;19937.81;5094686;28;20231;-68
2022/09/08 03:08:47;;;;;;;8.30;7.60;;;18.20;99.90;;;-141.84;75.98;19913.44;5093628;28;20228;-70
2022/09/08 03:11:17;;;;;;;8.07;7.35;;;18.20;99.90;;;-141.84;76.23;19929.69;5093828;28;20617;-68
2022/09/08 03:13:45;;;;;;;7.90;7.10;;;18.20;99.90;;;-141.84;76.53;19952.03;5093700;28;20235;-69
2022/09/08 03:16:13;;;;;;;7.50;6.80;;;18.20;99.90;;;-141.84;76.91;19911.41;5093527;28;20632;-69
2022/09/08 03:18:42;;;;;;;9.57;8.27;;;18.20;99.90;;;-141.84;76.71;19901.22;5093624;28;20204;-71
2022/09/08 03:21:14;;;;;;;8.90;7.50;;;18.20;99.90;;;-141.84;76.60;19874.81;5094203;28;20268;-68
2022/09/08 03:23:42;;;;;;;9.75;7.80;;;18.20;99.90;;;-141.84;76.35;19933.75;5093252;28;20239;-68
2022/09/08 03:26:15;;;;;;;8.85;7.95;;;18.20;99.90;;;-141.84;76.44;19895.13;5093647;28;20823;-71
2022/09/08 03:28:45;;;;;;;7.97;7.28;;;18.20;99.90;;;-141.84;76.31;19921.56;5093359;28;20227;-69
2022/09/08 03:31:16;;;;;;;8.65;7.72;;;18.20;99.90;;;-141.84;75.20;19945.94;5093438;28;20215;-69
2022/09/08 03:33:45;;;;;;;8.35;7.28;;;18.20;99.90;;;-141.84;75.49;19968.31;5093442;28;20216;-69
2022/09/08 03:36:16;;;;;;;10.25;8.75;;;18.20;99.90;;;-141.84;75.07;19941.88;5093400;28;20251;-70
2022/09/08 03:38:45;;;;;;;8.45;7.47;;;18.20;99.90;;;-141.84;75.39;19923.59;5093013;28;20721;-69
2022/09/08 03:41:16;;;;;;;9.68;7.57;;;18.10;99.90;;;-141.84;75.54;19913.44;5093022;28;20661;-68
2022/09/08 03:43:48;;;;;;;8.32;7.40;;;18.10;99.90;;;-141.84;75.66;19929.69;5093232;28;20220;-69
2022/09/08 03:46:17;;;;;;;8.85;7.07;;;18.10;99.90;;;-141.84;75.08;19956.09;5093250;28;20220;-70
2022/09/08 03:48:46;;;;;;;10.13;7.32;;;18.10;99.90;;;-141.84;75.29;19919.53;5093041;28;20212;-70
2022/09/08 03:51:17;;;;;;;7.75;7.05;;;18.10;99.90;;;-141.84;75.41;19966.28;5093111;28;20203;-69
2022/09/08 03:53:46;;;;;;;8.15;7.28;;;18.10;99.90;;;-141.84;75.40;19960.16;5092779;28;20224;-70
2022/09/08 03:56:14;;;;;;;8.18;7.03;;;18.10;99.90;;;-141.84;75.58;19929.69;5092778;28;20301;-70
2022/09/08 03:58:45;;;;;;;11.27;8.10;;;18.10;99.90;;;-141.84;75.37;19895.13;5092438;28;20273;-69
2022/09/08 04:01:17;;;;;;;7.93;7.03;;;18.10;99.90;;;-141.84;75.94;19889.03;5092526;28;20227;-69
2022/09/08 04:03:46;;;;;;;12.48;7.47;;;18.00;99.90;;;-141.84;75.68;19874.81;5092772;28;20188;-70
2022/09/08 04:06:16;;;;;;;9.18;7.40;;;18.10;99.90;;;-141.84;76.14;19889.03;5093028;28;20196;-70
2022/09/08 04:08:44;;;;;;;7.80;6.95;;;18.00;99.90;;;-141.84;75.94;19931.72;5092365;28;20224;-70
2022/09/08 04:11:12;;;;;;;8.38;7.53;;;18.00;99.90;;;-141.84;75.29;19960.16;5092385;28;20235;-70
2022/09/08 04:13:40;;;;;;;8.15;7.35;;;18.00;99.90;;;-141.84;75.50;19937.81;5092605;28;20250;-71
2022/09/08 04:16:09;;;;;;;9.93;7.47;;;18.10;99.90;;;-141.84;75.10;19907.31;5092139;28;20230;-69
2022/09/08 04:18:38;;;;;;;7.78;7.03;;;18.10;99.90;;;-141.84;74.71;19956.09;5092628;28;20206;-68
2022/09/08 04:21:06;;;;;;;7.93;7.22;;;18.10;99.90;;;-141.84;75.03;19941.88;5093165;28;20196;-67
2022/09/08 04:23:34;;;;;;;7.80;7.00;;;18.10;99.90;;;-141.84;75.21;19909.34;5092509;28;20737;-69
2022/09/08 04:26:08;;;;;;;8.90;7.22;;;18.10;99.90;;;-141.84;75.10;19960.16;5092111;28;20223;-68
2022/09/08 04:28:37;;;;;;;10.45;6.57;;;18.10;99.90;;;-141.84;74.81;19937.81;5091953;28;20230;-69
2022/09/08 04:31:07;;;;;;;9.00;6.80;;;18.20;99.90;;;-141.84;74.52;19931.72;5091926;28;20234;-69
2022/09/08 04:33:37;;;;;;;8.18;7.40;;;18.20;99.90;;;-141.84;73.82;19986.59;5092662;28;20199;-69
2022/09/08 04:36:08;;;;;;;8.32;7.38;;;18.20;99.90;;;-141.84;73.71;19990.66;5092318;28;20220;-72
2022/09/08 04:38:54;;;;;;;7.22;6.53;;;18.30;99.90;;;-141.84;74.03;19970.34;5091852;28;20232;-68
2022/09/08 04:41:22;;;;;;;8.48;7.07;;;18.30;99.90;;;-141.84;73.44;20010.97;5091741;28;20277;-68
2022/09/08 04:43:51;;;;;;;6.47;5.85;;;18.30;99.90;;;-141.84;73.66;20004.88;5091859;28;20271;-69
2022/09/08 04:46:20;;;;;;;11.43;6.03;;;18.40;99.90;;;-141.84;73.38;20002.84;5091303;28;20216;-67
2022/09/08 04:48:50;;;;;;;7.05;5.90;;;18.50;99.90;;;-141.84;74.51;20004.88;5090879;28;20561;-68
2022/09/08 04:51:20;;;;;;;8.50;5.72;;;18.40;99.90;;;-141.84;75.41;19954.06;5092272;28;20220;-69
2022/09/08 04:53:51;;;;;;;8.15;5.47;;;18.30;99.90;;;-141.84;76.54;19874.81;5091968;28;20231;-69
2022/09/08 04:56:21;;;;;;;9.68;6.30;;;18.20;99.90;;;-141.84;77.23;19899.19;5091625;28;20312;-68
2022/09/08 04:58:51;;;;;;;11.77;6.10;;;18.20;99.90;;;-141.84;77.49;19858.56;5091463;28;20227;-68
2022/09/08 05:01:25;;;;;;;10.50;6.18;;;18.10;99.90;;;-141.84;78.34;19887.00;5091610;28;20227;-68
2022/09/08 05:03:59;;;;;;;6.85;6.03;;;18.10;99.90;;;-141.84;79.13;19856.53;5091622;28;20272;-69
2022/09/08 05:06:29;;;;;;;7.40;6.20;;;18.00;99.90;;;-141.84;80.39;19803.69;5092214;28;20215;-68
2022/09/08 05:08:59;;;;;;;14.27;6.90;;;17.90;99.90;;;-141.84;81.50;19813.84;5091313;28;20912;-69
2022/09/08 05:11:30;;;;;;;10.98;6.90;;;17.80;99.90;;;-141.84;82.23;19722.38;5091185;28;20738;-69
2022/09/08 05:13:59;;;;;;;10.10;6.72;;;17.70;99.90;;;-141.84;83.29;19777.25;5091661;28;20718;-69
2022/09/08 05:16:29;;;;;;;10.75;6.68;;;17.70;99.90;;;-141.84;84.44;19726.44;5091116;28;20232;-69
2022/09/08 05:19:01;;;;;;;9.57;7.28;;;17.60;99.90;;;-141.84;84.42;19714.25;5091503;28;20177;-69
2022/09/08 05:21:32;;;;;;;9.63;7.10;;;17.50;99.90;;;-141.84;85.51;19708.16;5091529;28;20196;-69
2022/09/08 05:24:02;;;;;;;11.27;7.05;;;17.50;99.90;;;-141.84;86.66;19673.59;5091377;28;20228;-69
2022/09/08 05:26:30;;;;;;;11.13;8.10;;;17.40;99.90;;;-141.84;86.66;19663.44;5091036;28;20243;-69
2022/09/08 05:28:59;;;;;;;10.73;8.13;;;17.40;99.90;;;-141.84;86.17;19671.56;5090985;28;20228;-69
2022/09/08 05:31:30;;;;;;;9.88;8.10;;;17.40;99.90;;;-141.84;86.73;19614.66;5090853;28;20250;-69
2022/09/08 05:34:01;;;;;;;10.40;8.43;;;17.30;99.90;;;-141.84;87.72;19635.00;5091000;28;20231;-69
2022/09/08 05:36:32;;;;;;;10.50;8.27;;;17.30;99.90;;;-141.84;88.14;19641.09;5091652;28;20279;-69
2022/09/08 05:39:02;;;;;;;12.15;9.65;;;17.40;99.90;;;-141.84;87.65;19628.91;5091093;28;20648;-71
2022/09/08 05:41:33;;;;;;;9.73;8.68;;;17.30;99.90;;;-141.84;88.17;19622.81;5090688;28;20231;-69
2022/09/08 05:44:02;;;;;;;9.18;8.18;;;17.30;99.90;;;-141.84;89.16;19563.88;5090640;28;20231;-69
2022/09/08 05:46:30;;;;;;;10.88;8.00;;;17.30;99.90;;;-141.84;90.16;19602.47;5090725;28;20227;-68
2022/09/08 05:49:01;;;;;;;11.05;9.57;;;17.30;99.90;;;-141.84;90.08;19572.00;5090797;28;20228;-68
2022/09/08 05:51:30;;;;;;;11.38;8.85;;;17.30;99.90;;;-141.84;90.39;19549.63;5091092;28;20203;-70
2022/09/08 05:54:00;;;;;;;10.20;8.85;;;17.30;99.90;;;-141.84;90.13;19572.00;5091010;28;20230;-68
2022/09/08 05:56:29;;;;;;;11.02;9.82;;;17.40;99.90;;;-141.84;89.31;19535.41;5090679;28;20228;-68
2022/09/08 05:58:59;;;;;;;11.13;9.20;;;17.50;99.90;;;-141.84;89.56;19543.53;5090606;28;20227;-69
2022/09/08 06:01:30;;;;;;;10.65;9.50;;;17.50;99.90;;;-141.84;90.25;19504.94;5094746;28;20246;-69
2022/09/08 06:04:01;;;;;;;11.90;10.70;;;17.50;99.90;;;-141.84;90.56;19559.81;5095045;28;20231;-70
2022/09/08 06:06:30;;;;;;;12.40;10.27;;;17.60;99.90;;;-141.84;90.50;19557.78;5095602;28;20199;-68
2022/09/08 06:09:00;;;;;;;10.82;9.82;;;17.60;99.90;;;-141.84;90.62;19506.97;5094653;28;20231;-69
2022/09/08 06:11:30;;;;;;;13.45;10.32;;;17.70;99.90;;;-141.84;90.55;19535.41;5094485;28;20824;-68
2022/09/08 06:13:58;;;;;;;11.80;10.60;;;17.80;99.90;;;-141.84;89.46;19545.56;5094850;28;20223;-69
2022/09/08 06:16:27;;;;;;;11.75;10.65;;;17.90;99.90;;;-141.84;89.18;19614.66;5094191;28;20734;-68
2022/09/08 06:19:01;;;;;;;11.65;10.55;;;18.00;99.90;;;-141.84;89.52;19569.97;5094395;28;20200;-71
2022/09/08 06:21:33;;;;;;;12.10;9.95;;;18.10;99.90;;;-141.84;89.51;19572.00;5095136;28;20238;-70
2022/09/08 06:24:05;;;;;;;11.57;9.43;;;18.10;99.90;;;-141.84;89.21;19574.03;5094358;28;20234;-69
2022/09/08 06:26:52;;;;;;;10.07;9.07;;;18.20;99.90;;;-141.84;89.13;19547.59;5094280;28;20232;-69
2022/09/08 06:29:39;;;;;;;10.20;9.10;;;18.20;99.90;;;-141.84;89.54;19551.69;5094409;28;20227;-68
2022/09/08 06:32:22;;;;;;;10.18;9.10;;;18.20;99.90;;;-141.84;89.26;19569.97;5094034;28;20227;-71
2022/09/08 06:34:56;;;;;;;10.13;9.13;;;18.20;99.90;;;-141.84;88.45;19539.47;5094248;28;20604;-70
2022/09/08 06:37:37;;;;;;;10.10;9.10;;;18.20;99.90;;;-141.84;87.35;19567.94;5094049;28;20737;-69
2022/09/08 06:40:15;;;;;;;9.20;8.30;;;18.20;99.90;;;-141.84;86.57;19594.34;5093854;28;20234;-69
2022/09/08 06:42:53;;;;;;;10.57;9.57;;;18.20;99.90;;;-141.84;86.14;19626.88;5094033;28;20212;-68
2022/09/08 06:45:29;;;;;;;10.73;9.15;;;18.30;99.90;;;-141.84;85.95;19673.59;5094334;28;20647;-69
2022/09/08 06:48:14;;;;;;;10.15;9.15;;;18.30;99.90;;;-141.84;86.25;19594.34;5073590;28;20346;-69
2022/09/08 06:51:03;;;;;;;10.55;9.55;;;18.30;99.90;;;-141.84;86.75;19637.03;5073543;28;20225;-69
2022/09/08 06:53:37;;;;;;;9.85;8.85;;;18.40;99.90;;;-141.84;87.25;19618.75;5073487;28;20228;-69
2022/09/08 06:56:20;;;;;;;11.20;9.20;;;18.40;99.90;;;-141.84;87.79;19604.50;5073766;28;20232;-69
2022/09/08 06:59:21;;;;;;;12.15;9.88;;;18.40;99.90;;;-141.84;87.38;19653.28;5073081;28;20703;-68
2022/09/08 07:02:08;;;;;;;10.50;9.43;;;18.40;99.90;;;-141.84;86.70;19632.97;5073434;28;20255;-68
2022/09/08 07:04:51;;;;;;;11.77;9.02;;;18.50;99.90;;;-141.84;86.80;19649.22;5073444;28;20313;-68
2022/09/08 07:07:28;;;;;;;9.55;8.38;;;18.50;99.90;;;-141.84;84.84;19661.41;5073630;28;20323;-69
2022/09/08 07:10:05;;;;;;;8.85;8.05;;;18.60;99.90;;;-141.84;85.83;19681.75;5088890;28;20196;-67
2022/09/08 07:12:46;;;;;;;9.40;8.50;;;18.60;99.90;;;-141.84;86.09;19655.31;5093651;28;20208;-68
2022/09/08 07:15:37;;;;;;;10.23;9.13;;;18.70;99.90;;;-141.84;84.92;19712.22;5094017;28;20752;-68
2022/09/08 07:18:21;;;;;;;9.18;8.30;;;18.70;99.90;;;-141.84;85.23;19704.09;5094179;28;20300;-69
2022/09/08 07:20:49;;;;;;;10.05;9.02;;;18.70;99.90;;;-141.84;84.06;19732.53;5093554;28;20227;-68
2022/09/08 07:23:27;;;;;;;10.35;8.77;;;18.70;99.90;;;-141.84;84.71;19689.88;5093514;28;20228;-68
2022/09/08 07:26:00;;;;;;;12.70;10.07;;;18.80;99.90;;;-141.84;85.26;19675.63;5093554;28;20247;-70
2022/09/08 07:28:38;;;;;;;9.45;8.30;;;18.70;99.90;;;-141.84;85.35;19663.44;5091968;28;20372;-74
2022/09/08 07:31:18;;;;;;;10.70;9.13;;;18.60;99.90;;;-141.84;86.68;19635.00;5092977;28;20273;-69
2022/09/08 07:33:51;;;;;;;10.40;9.35;;;18.60;99.90;;;-141.84;87.75;19635.00;5093963;28;20238;-69
2022/09/08 07:36:29;;;;;;;10.27;9.27;;;18.50;99.90;;;-141.84;88.25;19614.66;5093710;28;20211;-69
2022/09/08 07:39:04;;;;;;;12.90;10.63;;;18.50;99.90;;;-141.84;87.33;19622.81;5093658;28;20230;-68
2022/09/08 07:41:40;;;;;;;11.10;10.00;;;18.50;99.90;;;-141.84;88.17;19569.97;5093764;28;20227;-70
2022/09/08 07:44:14;;;;;;;10.77;9.68;;;18.40;99.90;;;-141.84;88.95;19582.16;5093641;28;20255;-72
2022/09/08 07:47:17;;;;;;;10.35;9.25;;;18.30;99.90;;;-141.84;90.00;19551.69;5093729;28;20277;-72
2022/09/08 07:49:59;;;;;;;12.80;9.63;;;18.30;99.90;;;-141.84;90.73;19494.78;5091207;28;20224;-74
2022/09/08 07:52:56;;;;;;;12.70;10.10;;;18.20;99.90;;;-141.84;90.99;19557.78;5093089;28;20733;-66
2022/09/08 07:55:37;;;;;;;14.02;10.90;;;18.10;99.90;;;-141.84;91.26;19486.66;5092900;28;20594;-66
2022/09/08 07:58:16;;;;;;;11.30;10.25;;;18.10;99.90;;;-141.84;91.64;19492.75;5092651;28;20250;-66
2022/09/08 08:00:53;;;;;;;10.60;9.52;;;18.10;99.90;;;-141.84;92.15;19517.13;5092974;28;20180;-66
2022/09/08 08:03:59;;;;;;;11.27;9.55;;;18.10;99.90;;;-141.84;91.41;19498.84;5092706;28;20200;-69
2022/09/08 08:06:49;;;;;;;10.65;9.55;;;18.20;99.90;;;-141.84;88.65;19563.88;5092939;28;20665;-68
2022/09/08 08:09:48;;;;;;;11.40;9.60;;;18.20;99.90;;;-141.84;89.19;19521.19;5093254;28;20572;-63
2022/09/08 08:12:47;;;;;;;11.45;8.85;;;18.10;99.90;;;-141.84;90.24;19474.44;5092370;28;20235;-62
2022/09/08 08:15:44;;;;;;;9.93;8.98;;;18.10;99.90;;;-141.84;91.26;19488.69;5093366;28;20187;-62
2022/09/08 08:18:28;;;;;;;9.85;8.95;;;18.10;99.90;;;-141.84;91.53;19478.50;5092524;28;20707;-62
2022/09/08 08:21:05;;;;;;;10.63;9.55;;;18.00;99.90;;;-141.84;92.15;19500.88;5092407;28;20220;-62
2022/09/08 08:24:04;;;;;;;11.45;9.15;;;18.00;99.90;;;-141.84;92.96;19472.41;5092768;28;20231;-69
2022/09/08 08:26:50;;;;;;;10.85;9.27;;;18.00;99.90;;;-141.84;93.76;19439.91;5092225;28;20224;-66
2022/09/08 08:29:44;;;;;;;11.77;10.25;;;18.00;99.90;;;-141.84;93.82;19378.94;5092516;28;20251;-71
2022/09/08 08:32:19;;;;;;;11.85;10.43;;;18.00;99.90;;;-141.84;93.65;19395.19;5092027;28;20226;-65
2022/09/08 08:35:15;;;;;;;11.45;10.25;;;18.00;99.90;;;-141.84;92.64;19372.84;5092086;28;20228;-63
2022/09/08 08:37:49;;;;;;;11.45;10.35;;;17.90;99.90;;;-141.84;92.71;19409.41;5092085;28;20255;-63
2022/09/08 08:40:34;;;;;;;11.15;10.00;;;17.90;99.90;;;-141.84;92.85;19403.31;5092162;28;20230;-64
2022/09/08 08:43:29;;;;;;;12.48;11.18;;;17.90;99.90;;;-141.84;93.28;19389.09;5092094;28;20246;-64
2022/09/08 08:46:25;;;;;;;12.38;9.68;;;17.80;99.90;;;-141.84;93.84;19397.22;5098283;28;20199;-75
2022/09/08 08:49:22;;;;;;;10.80;9.70;;;17.90;99.90;;;-141.84;94.50;19385.03;5093374;28;20557;-63
2022/09/08 08:52:13;;;;;;;11.45;10.30;;;17.80;99.90;;;-141.84;95.06;19397.22;5092331;28;20285;-69
2022/09/08 08:55:08;;;;;;;11.10;9.93;;;17.80;99.90;;;-141.84;95.45;19433.81;5092121;28;20191;-68
2022/09/08 08:58:00;;;;;;;14.23;11.00;;;17.80;99.90;;;-141.84;95.81;19397.22;5091778;28;20218;-65
2022/09/08 09:00:48;;;;;;;14.13;11.30;;;17.80;99.90;;;-141.84;95.76;19448.03;5091870;28;20258;-63
2022/09/08 09:03:50;;;;;;;12.32;11.13;;;17.80;99.90;;;-141.84;95.04;19415.50;5092300;28;20180;-71
2022/09/08 09:07:04;;;;;;;11.27;10.18;;;17.80;99.90;;;-141.84;94.85;19403.31;5091914;28;20214;-69
2022/09/08 09:10:30;;;;;;;12.65;9.70;;;17.80;99.90;;;-141.84;95.40;19389.09;5091107;28;20340;-67
2022/09/08 09:13:36;;;;;;;12.60;10.35;;;17.80;99.90;;;-141.84;94.99;19409.41;5067537;28;20699;-65
2022/09/08 09:16:39;;;;;;;11.73;9.93;;;17.80;99.90;;;-141.84;94.42;19433.81;5078003;28;20227;-74
2022/09/08 09:19:44;;;;;;;11.85;9.75;;;17.80;99.90;;;-141.84;95.34;19370.81;5092071;28;20223;-74
2022/09/08 09:22:26;;;;;;;10.90;9.10;;;17.80;99.90;;;-141.84;95.38;19356.59;5092100;28;20230;-75
2022/09/08 09:25:15;;;;;;;11.90;10.18;;;17.80;99.90;;;-141.84;95.88;19368.78;5091368;28;20552;-67
2022/09/08 09:27:46;;;;;;;11.45;10.25;;;17.90;99.90;;;-141.84;96.12;19387.06;5090550;28;20204;-68
2022/09/08 09:30:23;;;;;;;11.73;10.48;;;17.90;99.90;;;-141.84;96.27;19352.53;5091594;28;20192;-69
2022/09/08 09:33:55;;;;;;;11.43;8.88;;;18.00;99.90;;;-141.84;95.76;19376.91;5091199;28;20590;-69
2022/09/08 09:37:02;;;;;;;10.15;8.63;;;18.00;99.90;;;-141.84;95.74;19362.69;5090813;28;20233;-68
2022/09/08 09:39:56;;;;;;;9.10;8.20;;;18.00;99.90;;;-141.84;95.38;19354.56;5091244;28;20231;-68
2022/09/08 09:43:04;;;;;;;10.70;8.98;;;18.10;99.90;;;-141.84;94.84;19395.19;5090926;28;20323;-70
2022/09/08 09:46:05;;;;;;;9.55;8.65;;;18.10;99.90;;;-141.84;94.84;19385.03;5090826;28;20599;-71
2022/09/08 09:49:11;;;;;;;9.70;8.65;;;18.20;99.90;;;-141.84;93.97;19423.66;5091042;28;20245;-71
2022/09/08 09:51:58;;;;;;;9.68;8.68;;;18.30;99.90;;;-141.84;92.48;19423.66;5090712;28;20211;-70
2022/09/08 09:55:00;;;;;;;8.27;7.60;;;18.50;99.90;;;-141.84;91.26;19443.97;5091571;28;20180;-71
2022/09/08 09:58:26;;;;;;;8.10;7.30;;;18.60;99.90;;;-141.84;90.38;19476.47;5082611;28;20212;-70
2022/09/08 10:01:34;;;;;;;7.90;7.20;;;18.60;99.90;;;-141.84;89.59;19500.88;5070712;28;20305;-70
2022/09/08 10:04:44;;;;;;;8.77;7.88;;;18.80;99.90;;;-141.84;87.88;19545.56;5069069;28;20572;-68
2022/09/08 10:07:49;;;;;;;8.13;7.25;;;19.10;99.90;;;-141.84;86.13;19563.88;5069303;28;20225;-67
2022/09/08 10:10:44;;;;;;;8.68;7.13;;;19.30;99.90;;;-141.84;83.27;19671.56;5084530;28;20249;-69
2022/09/08 10:14:09;;;;;;;7.38;6.68;;;19.50;99.90;;;-141.84;81.01;19683.78;5090654;28;20306;-67
2022/09/08 10:17:27;;;;;;;6.80;6.13;;;19.60;99.90;;;-141.84;81.33;19714.25;5090020;28;20227;-66
2022/09/08 10:20:36;;;;;;;7.18;6.47;;;19.80;99.90;;;-141.84;81.01;19750.84;5089789;28;20228;-66
2022/09/08 10:24:12;;;;;;;7.18;6.40;;;19.80;99.90;;;-141.84;80.25;19740.69;5089797;28;20224;-68
2022/09/08 10:27:23;;;;;;;7.03;6.20;;;19.70;99.90;;;-141.84;80.82;19724.41;5090219;28;20231;-66
2022/09/08 10:30:20;;;;;;;7.70;6.78;;;19.70;99.90;;;-141.84;81.07;19763.03;5090392;28;20227;-66
2022/09/08 10:33:52;;;;;;;6.72;6.13;;;19.80;99.90;;;-141.84;80.35;19801.66;5090346;28;20224;-67
2022/09/08 10:36:32;;;;;;;6.60;6.00;;;20.00;99.90;;;-141.84;77.98;19856.53;5086942;28;20235;-67
2022/09/08 10:39:29;;;;;;;6.47;5.75;;;20.20;99.90;;;-141.84;76.96;19933.75;5089628;28;20622;-68
2022/09/08 10:42:39;;;;;;;6.07;5.47;;;20.30;99.90;;;-141.84;77.00;19958.13;5089823;28;20248;-67
2022/09/08 10:45:56;;;;;;;6.60;5.20;;;20.60;99.90;;;-141.84;77.11;19994.72;5088486;28;20216;-66
2022/09/08 10:49:08;;;;;;;5.72;5.10;;;20.70;99.90;;;-141.84;74.08;20098.38;5093554;28;20234;-66
2022/09/08 10:52:07;;;;;;;4.55;4.15;;;20.80;99.90;;;-141.84;75.49;20094.31;5091045;28;20231;-66
2022/09/08 10:55:27;;;;;;;5.60;4.80;;;21.00;99.90;;;-141.84;74.10;20130.91;5094238;28;20290;-67
2022/09/08 10:58:27;;;;;;;4.57;4.18;;;21.10;99.90;;;-141.84;74.06;20110.56;5075528;28;20579;-69